Time;durP1;ratioP1;P1;durP2;ratioP2;P2;SDS_P1;SDS_P2;PMS_P1;PMS_P2;Temp;Humidity;BMP_temperature;BMP_pressure;BME280_temperature;BME280_humidity;BME280_pressure;Samples;Min_cycle;Max_cycle;Signal;HPM_P1;HPM_P2
2023/05/23 08:02:36;;;;;;;1.15;1.15;;;19.90;99.90;;;;;;5080535;27;20414;-77
2023/05/23 08:05:03;;;;;;;1.00;1.00;;;19.60;99.90;;;;;;5059595;28;20435;-76
2023/05/23 08:07:30;;;;;;;2.30;1.20;;;19.30;99.90;;;;;;5079281;28;20886;-77
2023/05/23 08:09:59;;;;;;;1.23;1.20;;;19.10;99.90;;;;;;5073034;28;20424;-77
2023/05/23 08:12:28;;;;;;;0.77;0.77;;;19.00;99.90;;;;;;5069866;28;21013;-76
2023/05/23 08:14:55;;;;;;;0.70;0.70;;;18.90;99.90;;;;;;5068146;28;20445;-76
2023/05/23 08:17:22;;;;;;;0.90;0.90;;;18.90;99.90;;;;;;5074920;28;20436;-77
2023/05/23 08:19:49;;;;;;;1.25;0.85;;;18.80;99.90;;;;;;5063541;28;20943;-77
2023/05/23 08:22:16;;;;;;;2.43;0.90;;;18.80;99.90;;;;;;5068992;28;20430;-77
2023/05/23 08:24:43;;;;;;;1.80;0.80;;;18.90;99.90;;;;;;5055853;28;20459;-77
2023/05/23 08:27:10;;;;;;;0.80;0.73;;;19.10;99.90;;;;;;5071922;28;20423;-77
2023/05/23 08:29:40;;;;;;;0.98;0.98;;;19.90;99.90;;;;;;5064461;28;20456;-75
2023/05/23 08:32:06;;;;;;;0.70;0.70;;;21.20;99.90;;;;;;5070444;28;20484;-75
2023/05/23 08:34:33;;;;;;;0.90;0.90;;;22.90;99.90;;;;;;5090713;28;20433;-75
2023/05/23 08:37:00;;;;;;;2.10;1.15;;;24.30;99.90;;;;;;5068693;28;20429;-76
2023/05/23 08:39:27;;;;;;;0.95;0.95;;;24.60;99.90;;;;;;5072646;28;20622;-75
2023/05/23 08:41:57;;;;;;;1.38;1.27;;;24.20;99.90;;;;;;5064934;28;20435;-76
2023/05/23 08:44:23;;;;;;;1.00;1.00;;;23.10;99.90;;;;;;5074133;28;20469;-75
2023/05/23 08:46:52;;;;;;;0.97;0.97;;;21.90;99.90;;;;;;5069844;28;20427;-75
2023/05/23 08:49:21;;;;;;;1.02;1.02;;;20.90;99.90;;;;;;5075254;28;20492;-76
2023/05/23 08:51:53;;;;;;;1.10;1.10;;;20.00;99.90;;;;;;5079246;28;20439;-77
2023/05/23 08:54:21;;;;;;;0.90;0.90;;;19.60;99.90;;;;;;5064118;28;20849;-77
2023/05/23 08:56:48;;;;;;;0.90;0.90;;;19.30;99.90;;;;;;5057997;28;20939;-76
2023/05/23 08:59:15;;;;;;;1.38;0.93;;;19.30;99.90;;;;;;5062914;28;20467;-74
2023/05/23 09:01:44;;;;;;;1.63;1.20;;;19.60;99.90;;;;;;5044804;28;20524;-76
2023/05/23 09:04:14;;;;;;;0.57;0.57;;;20.50;99.90;;;;;;5049445;28;20420;-76
2023/05/23 09:06:41;;;;;;;0.70;0.70;;;21.20;99.90;;;;;;5057141;28;20508;-77
2023/05/23 09:09:08;;;;;;;0.82;0.82;;;21.90;99.90;;;;;;5069828;28;20794;-77
2023/05/23 09:11:35;;;;;;;1.07;1.07;;;22.80;99.90;;;;;;5059294;28;20436;-77
2023/05/23 09:14:13;;;;;;;1.07;1.07;;;22.90;99.90;;;;;;5039152;28;20471;-77
2023/05/23 09:16:40;;;;;;;0.98;0.80;;;22.60;99.90;;;;;;5037360;28;20530;-77
2023/05/23 09:19:11;;;;;;;0.67;0.67;;;22.50;99.90;;;;;;5049724;28;20423;-77
2023/05/23 09:21:45;;;;;;;0.77;0.77;;;22.20;99.90;;;;;;5040081;28;20446;-76
2023/05/23 09:24:12;;;;;;;0.52;0.52;;;21.70;99.90;;;;;;5062407;28;20445;-76
2023/05/23 09:26:38;;;;;;;0.57;0.57;;;21.30;99.90;;;;;;5048766;28;20457;-76
2023/05/23 09:29:06;;;;;;;0.70;0.70;;;20.80;99.90;;;;;;5045515;28;20530;-76
2023/05/23 09:31:33;;;;;;;0.50;0.50;;;20.30;99.90;;;;;;5044307;28;20512;-76
2023/05/23 09:34:00;;;;;;;1.15;0.95;;;19.80;99.90;;;;;;5048530;28;20433;-76
2023/05/23 09:36:29;;;;;;;0.30;0.30;;;19.30;99.90;;;;;;5050595;28;20452;-76
2023/05/23 09:38:56;;;;;;;0.50;0.50;;;19.00;99.90;;;;;;5039331;28;20497;-76
2023/05/23 09:41:23;;;;;;;1.50;0.50;;;19.00;99.90;;;;;;5030715;28;21165;-77
2023/05/23 09:43:51;;;;;;;0.65;0.50;;;19.00;99.90;;;;;;5033307;28;20440;-76
2023/05/23 09:46:19;;;;;;;0.80;0.60;;;19.00;99.90;;;;;;5057334;28;20435;-77
2023/05/23 09:48:47;;;;;;;0.67;0.67;;;19.20;99.90;;;;;;5061344;28;20489;-77
2023/05/23 09:51:20;;;;;;;1.40;0.80;;;19.40;99.90;;;;;;5061987;28;20466;-77
2023/05/23 09:53:47;;;;;;;0.52;0.52;;;19.80;99.90;;;;;;5055486;28;20796;-76
2023/05/23 09:56:25;;;;;;;0.30;0.30;;;20.20;99.90;;;;;;5049236;28;20890;-76
2023/05/23 09:58:53;;;;;;;15.98;14.57;;;20.70;99.90;;;;;;5063113;28;20438;-76
2023/05/23 10:01:24;;;;;;;0.40;0.40;;;21.00;99.90;;;;;;5059200;28;20437;-77
2023/05/23 10:03:54;;;;;;;0.63;0.60;;;21.20;99.90;;;;;;5063441;28;20514;-77
2023/05/23 10:06:41;;;;;;;0.60;0.60;;;21.70;99.90;;;;;;5058795;28;20427;-76
2023/05/23 10:09:16;;;;;;;1.50;0.70;;;22.50;99.90;;;;;;5068190;28;20485;-77
2023/05/23 10:12:07;;;;;;;0.30;0.30;;;22.90;99.90;;;;;;5065340;28;20431;-75
2023/05/23 10:14:38;;;;;;;0.60;0.60;;;22.70;99.90;;;;;;5078448;28;20655;-75
2023/05/23 10:17:12;;;;;;;0.60;0.60;;;22.10;99.90;;;;;;5076523;28;20467;-75
2023/05/23 10:19:47;;;;;;;0.70;0.70;;;21.50;99.90;;;;;;5048567;28;20935;-75
2023/05/23 10:22:18;;;;;;;0.30;0.30;;;21.30;99.90;;;;;;5071993;28;20492;-76
2023/05/23 10:24:52;;;;;;;1.30;0.82;;;21.00;99.90;;;;;;5067395;28;20417;-75
2023/05/23 10:27:19;;;;;;;0.77;0.77;;;20.40;99.90;;;;;;5065556;28;20468;-75
2023/05/23 10:29:47;;;;;;;1.40;1.30;;;20.20;99.90;;;;;;5055661;28;20504;-75
2023/05/23 10:32:14;;;;;;;0.80;0.73;;;20.20;99.90;;;;;;5061667;28;20471;-76
2023/05/23 10:34:46;;;;;;;0.70;0.70;;;20.20;99.90;;;;;;5068388;28;20430;-75
2023/05/23 10:37:26;;;;;;;1.27;1.17;;;20.40;99.90;;;;;;5062614;28;20430;-75
2023/05/23 10:39:52;;;;;;;1.10;1.10;;;20.60;99.90;;;;;;5047399;28;20475;-75
2023/05/23 10:42:46;;;;;;;0.70;0.70;;;20.40;99.90;;;;;;5069209;28;20441;-75
2023/05/23 10:45:21;;;;;;;1.10;0.90;;;20.30;99.90;;;;;;5067131;28;20971;-75
2023/05/23 10:47:49;;;;;;;0.88;0.88;;;20.30;99.90;;;;;;5054575;28;20726;-75
2023/05/23 10:50:40;;;;;;;1.05;1.05;;;20.10;99.90;;;;;;5062010;28;20422;-75
2023/05/23 10:53:10;;;;;;;1.20;1.10;;;20.00;99.90;;;;;;5058507;28;20439;-74
2023/05/23 10:55:37;;;;;;;1.13;1.13;;;20.00;99.90;;;;;;5047340;28;20436;-75
2023/05/23 10:58:19;;;;;;;1.42;1.33;;;20.10;99.90;;;;;;5066185;28;20944;-75
2023/05/23 11:00:53;;;;;;;1.80;1.67;;;20.20;99.90;;;;;;5060169;28;20434;-75
2023/05/23 11:03:34;;;;;;;1.83;1.73;;;20.20;99.90;;;;;;5069838;28;20831;-75
2023/05/23 11:06:02;;;;;;;5.03;1.73;;;20.10;99.90;;;;;;5041883;28;20514;-75
2023/05/23 11:08:37;;;;;;;1.50;1.37;;;20.20;99.90;;;;;;5075579;28;20487;-76
2023/05/23 11:11:14;;;;;;;1.42;1.33;;;20.40;99.90;;;;;;5068230;28;20434;-75
2023/05/23 11:14:01;;;;;;;2.15;1.92;;;20.80;99.90;;;;;;5061804;28;20429;-76
2023/05/23 11:16:30;;;;;;;1.65;1.55;;;21.00;99.90;;;;;;5060483;28;20415;-76
2023/05/23 11:19:17;;;;;;;1.90;1.80;;;21.30;99.90;;;;;;5061719;28;20432;-76
2023/05/23 11:22:01;;;;;;;1.55;1.55;;;21.40;99.90;;;;;;5043035;28;20495;-76
2023/05/23 11:24:52;;;;;;;1.17;1.17;;;21.20;99.90;;;;;;5048300;28;20515;-76
2023/05/23 11:27:30;;;;;;;1.67;1.30;;;21.00;99.90;;;;;;5086151;28;20479;-76
2023/05/23 11:30:00;;;;;;;1.70;1.60;;;20.90;99.90;;;;;;5054314;28;20478;-75
2023/05/23 11:32:29;;;;;;;1.20;1.20;;;20.70;99.90;;;;;;5035667;28;20428;-76
2023/05/23 11:35:00;;;;;;;1.45;1.45;;;20.50;99.90;;;;;;5066821;28;20434;-76
2023/05/23 11:37:28;;;;;;;1.80;1.50;;;20.50;99.90;;;;;;5062805;28;20427;-76
2023/05/23 11:39:54;;;;;;;1.80;1.70;;;20.70;99.90;;;;;;5075754;28;20525;-77
2023/05/23 11:42:22;;;;;;;1.58;1.48;;;20.90;99.90;;;;;;5071655;28;20493;-77
2023/05/23 11:44:50;;;;;;;2.30;1.80;;;21.00;99.90;;;;;;5061282;28;20763;-76
2023/05/23 11:47:18;;;;;;;1.50;1.50;;;21.20;99.90;;;;;;5084218;28;20455;-76
2023/05/23 11:49:45;;;;;;;2.35;1.35;;;21.60;99.90;;;;;;5067546;28;20423;-76
2023/05/23 11:52:13;;;;;;;1.10;1.10;;;21.60;99.90;;;;;;5074398;28;20490;-76
2023/05/23 11:54:42;;;;;;;1.23;1.20;;;21.70;99.90;;;;;;5050037;28;20467;-76
2023/05/23 11:57:10;;;;;;;1.40;1.30;;;21.90;99.90;;;;;;5063547;28;20793;-76
2023/05/23 11:59:37;;;;;;;1.33;1.23;;;22.20;99.90;;;;;;5067674;28;20423;-76
2023/05/23 12:02:06;;;;;;;0.73;0.73;;;22.30;99.90;;;;;;5045337;28;20473;-76
2023/05/23 12:04:39;;;;;;;0.98;0.98;;;22.50;99.90;;;;;;5042576;28;20524;-76
2023/05/23 12:07:06;;;;;;;0.52;0.52;;;22.70;99.90;;;;;;5071202;28;21241;-76
2023/05/23 12:09:41;;;;;;;0.90;0.80;;;23.00;99.90;;;;;;5066743;28;20530;-76
2023/05/23 12:12:08;;;;;;;0.90;0.90;;;23.20;99.90;;;;;;5068822;28;20433;-76
2023/05/23 12:14:43;;;;;;;1.17;1.00;;;23.10;99.90;;;;;;5053442;28;20434;-76
2023/05/23 12:17:13;;;;;;;0.63;0.63;;;23.10;99.90;;;;;;5065121;28;20434;-76
2023/05/23 12:19:45;;;;;;;1.47;1.20;;;22.80;99.90;;;;;;5080239;28;20476;-76
2023/05/23 12:22:12;;;;;;;0.73;0.73;;;22.60;99.90;;;;;;5060485;28;20433;-76
2023/05/23 12:24:45;;;;;;;1.13;0.90;;;22.10;99.90;;;;;;5070023;28;20770;-75
2023/05/23 12:27:12;;;;;;;1.00;0.90;;;21.50;99.90;;;;;;5066188;28;20454;-75
2023/05/23 12:29:41;;;;;;;0.95;0.93;;;21.40;99.90;;;;;;5063550;28;20432;-76
2023/05/23 12:32:08;;;;;;;0.80;0.80;;;21.60;99.90;;;;;;5056991;28;20438;-76
2023/05/23 12:34:40;;;;;;;0.43;0.43;;;22.10;99.90;;;;;;5067721;28;20540;-76
2023/05/23 12:37:07;;;;;;;0.77;0.77;;;22.60;99.90;;;;;;5083387;28;20439;-76
2023/05/23 12:39:37;;;;;;;50.30;42.15;;;22.80;99.90;;;;;;5064110;28;20818;-76
2023/05/23 12:42:08;;;;;;;1.10;0.50;;;22.80;99.90;;;;;;5049050;28;20545;-76
2023/05/23 12:44:35;;;;;;;0.50;0.50;;;23.20;99.90;;;;;;5047378;28;20451;-76
2023/05/23 12:47:03;;;;;;;0.55;0.55;;;23.60;99.90;;;;;;5067745;28;20419;-76
2023/05/23 12:49:32;;;;;;;1.08;0.77;;;23.80;99.90;;;;;;5076777;28;20534;-73
2023/05/23 12:51:59;;;;;;;0.40;0.40;;;24.00;99.90;;;;;;5065779;28;20433;-74
2023/05/23 12:54:26;;;;;;;0.43;0.43;;;24.30;99.90;;;;;;5076968;28;20918;-74
2023/05/23 12:56:53;;;;;;;0.57;0.57;;;24.00;99.90;;;;;;5070065;28;20439;-73
2023/05/23 12:59:20;;;;;;;1.30;0.30;;;23.70;99.90;;;;;;5073804;28;20524;-73
2023/05/23 13:01:46;;;;;;;1.00;1.00;;;23.40;99.90;;;;;;5063625;28;20426;-71
2023/05/23 13:04:13;;;;;;;1.15;1.15;;;23.50;99.90;;;;;;5033464;28;20977;-73
2023/05/23 13:06:40;;;;;;;0.30;0.30;;;23.60;99.90;;;;;;5044445;28;20458;-74
2023/05/23 13:09:08;;;;;;;0.77;0.77;;;24.10;99.90;;;;;;5075275;28;20435;-73
2023/05/23 13:11:34;;;;;;;1.00;0.70;;;24.50;99.90;;;;;;5052816;28;20429;-72
2023/05/23 13:14:05;;;;;;;0.50;0.50;;;24.30;99.90;;;;;;5052583;28;20455;-72
2023/05/23 13:16:35;;;;;;;0.20;0.20;;;24.00;99.90;;;;;;5077772;28;20429;-72
2023/05/23 13:19:02;;;;;;;0.30;0.30;;;23.60;99.90;;;;;;5064337;28;20577;-73
2023/05/23 13:21:30;;;;;;;2.90;0.70;;;23.40;99.90;;;;;;5079827;28;20427;-73
2023/05/23 13:24:04;;;;;;;0.30;0.30;;;23.10;99.90;;;;;;5074306;28;20433;-72
2023/05/23 13:26:31;;;;;;;0.47;0.47;;;22.80;99.90;;;;;;5079042;28;20437;-74
2023/05/23 13:28:57;;;;;;;37.72;34.20;;;22.60;99.90;;;;;;5071688;28;20800;-73
2023/05/23 13:31:24;;;;;;;7.15;6.45;;;22.60;99.90;;;;;;5067087;28;20431;-73
2023/05/23 13:33:51;;;;;;;11.02;10.20;;;22.20;99.90;;;;;;5060247;28;20433;-73
2023/05/23 13:36:21;;;;;;;0.28;0.22;;;22.10;99.90;;;;;;5079776;28;20458;-73
2023/05/23 13:38:50;;;;;;;0.50;0.50;;;22.00;99.90;;;;;;5060061;28;20532;-73
2023/05/23 13:41:19;;;;;;;0.75;0.75;;;21.70;99.90;;;;;;5071357;28;20427;-73
2023/05/23 13:43:46;;;;;;;0.50;0.50;;;21.60;99.90;;;;;;5072291;28;20461;-74
2023/05/23 13:46:13;;;;;;;0.45;0.45;;;21.70;99.90;;;;;;5050700;28;20432;-74
2023/05/23 13:48:40;;;;;;;1.02;0.57;;;22.10;99.90;;;;;;5069414;28;20436;-74
2023/05/23 13:51:07;;;;;;;3.85;3.65;;;22.20;99.90;;;;;;5080642;28;20480;-74
2023/05/23 13:53:33;;;;;;;0.77;0.77;;;22.20;99.90;;;;;;5063307;28;20441;-73
2023/05/23 13:56:00;;;;;;;0.83;0.83;;;21.80;99.90;;;;;;5071023;28;20439;-74
2023/05/23 13:58:27;;;;;;;0.93;0.93;;;21.50;99.90;;;;;;5078803;28;20434;-74
2023/05/23 14:00:58;;;;;;;0.88;0.88;;;21.60;99.90;;;;;;5063682;28;20457;-74
2023/05/23 14:03:25;;;;;;;1.00;1.00;;;21.60;99.90;;;;;;5057965;28;20956;-74
2023/05/23 14:05:52;;;;;;;142.43;128.40;;;21.30;99.90;;;;;;5043874;28;20422;-73
2023/05/23 14:08:18;;;;;;;1.85;0.70;;;21.00;99.90;;;;;;5074036;28;20863;-73
2023/05/23 14:10:45;;;;;;;0.50;0.50;;;21.00;99.90;;;;;;5065736;28;20428;-73
2023/05/23 14:13:13;;;;;;;1.35;0.95;;;21.40;99.90;;;;;;5082419;28;20582;-74
2023/05/23 14:15:40;;;;;;;69.30;61.80;;;22.40;99.90;;;;;;5068807;28;20445;-73
2023/05/23 14:18:08;;;;;;;0.52;0.52;;;23.30;99.90;;;;;;5052525;28;20955;-73
2023/05/23 14:20:35;;;;;;;0.85;0.77;;;23.30;99.90;;;;;;5071659;28;20438;-73
2023/05/23 14:23:04;;;;;;;0.82;0.77;;;22.80;99.90;;;;;;5062822;28;20428;-73
2023/05/23 14:25:31;;;;;;;2.20;0.80;;;22.60;99.90;;;;;;5073392;28;20468;-73
2023/05/23 14:28:00;;;;;;;0.50;0.50;;;22.20;99.90;;;;;;5072720;28;20934;-72
2023/05/23 14:30:27;;;;;;;0.73;0.55;;;21.80;99.90;;;;;;5075545;28;20469;-73
2023/05/23 14:32:53;;;;;;;0.60;0.40;;;21.50;99.90;;;;;;5082916;28;20424;-73
2023/05/23 14:35:25;;;;;;;0.70;0.70;;;21.30;99.90;;;;;;5063768;28;20435;-73
2023/05/23 14:37:53;;;;;;;2.10;1.27;;;20.80;99.90;;;;;;5067167;28;20511;-73
2023/05/23 14:40:20;;;;;;;0.70;0.70;;;20.50;99.90;;;;;;5070165;28;20935;-73
2023/05/23 14:42:47;;;;;;;1.70;0.77;;;20.10;99.90;;;;;;5063797;28;20466;-73
2023/05/23 14:45:14;;;;;;;7.27;1.13;;;19.60;99.90;;;;;;5075470;28;20430;-73
2023/05/23 14:47:44;;;;;;;1.23;1.23;;;19.30;99.90;;;;;;5075750;28;20435;-73
2023/05/23 14:50:11;;;;;;;0.70;0.60;;;19.00;99.90;;;;;;5063756;28;20433;-72
2023/05/23 14:52:37;;;;;;;0.80;0.80;;;18.70;99.90;;;;;;5079981;28;20855;-72
2023/05/23 14:55:05;;;;;;;2.85;1.15;;;18.70;99.90;;;;;;5081805;28;20430;-72
2023/05/23 14:57:32;;;;;;;1.30;1.00;;;18.70;99.90;;;;;;5079955;28;20483;-72
2023/05/23 14:59:59;;;;;;;110.60;89.80;;;18.90;99.90;;;;;;5056447;28;20886;-72
2023/05/23 15:02:25;;;;;;;0.85;0.85;;;19.00;99.90;;;;;;5071085;28;20544;-72
2023/05/23 15:04:52;;;;;;;1.25;1.13;;;19.20;99.90;;;;;;5054272;28;20737;-72
2023/05/23 15:07:19;;;;;;;1.25;1.15;;;19.50;99.90;;;;;;5071253;28;20430;-72
2023/05/23 15:09:46;;;;;;;3.50;1.02;;;19.30;99.90;;;;;;5078268;28;20455;-72
2023/05/23 15:12:14;;;;;;;3.30;1.75;;;19.20;99.90;;;;;;5062354;28;20425;-72
2023/05/23 15:14:42;;;;;;;1.48;1.38;;;19.20;99.90;;;;;;5078265;28;20460;-72
2023/05/23 15:17:11;;;;;;;1.77;0.85;;;19.40;99.90;;;;;;5066331;28;20418;-72
2023/05/23 15:19:41;;;;;;;0.70;0.70;;;20.40;99.90;;;;;;5077310;28;20500;-72
2023/05/23 15:22:08;;;;;;;0.80;0.80;;;21.80;99.90;;;;;;5049340;28;20434;-74
2023/05/23 15:24:48;;;;;;;0.97;0.97;;;22.80;99.90;;;;;;5080296;28;20429;-73
2023/05/23 15:27:15;;;;;;;3.78;1.67;;;23.20;99.90;;;;;;5061687;28;20425;-73
2023/05/23 15:29:46;;;;;;;1.73;1.27;;;22.90;99.90;;;;;;5081247;28;21076;-73
2023/05/23 15:32:13;;;;;;;1.55;0.90;;;22.60;99.90;;;;;;5076593;28;20855;-74
2023/05/23 15:34:40;;;;;;;1.88;1.10;;;22.10;99.90;;;;;;5079840;28;20857;-73
2023/05/23 15:37:07;;;;;;;1.10;0.98;;;22.00;99.90;;;;;;5076027;28;20422;-73
2023/05/23 15:39:36;;;;;;;4.15;1.35;;;21.30;99.90;;;;;;5071123;28;20478;-73
2023/05/23 15:42:03;;;;;;;1.05;0.95;;;20.70;99.90;;;;;;5077045;28;20849;-73
2023/05/23 15:44:30;;;;;;;0.85;0.85;;;21.40;99.90;;;;;;5067011;28;20764;-72
2023/05/23 15:46:56;;;;;;;1.87;0.70;;;21.80;99.90;;;;;;5052499;28;20496;-72
2023/05/23 15:49:23;;;;;;;1.00;0.90;;;21.40;99.90;;;;;;5067038;28;20864;-72
2023/05/23 15:51:53;;;;;;;0.80;0.65;;;21.10;99.90;;;;;;5072322;28;20425;-73
2023/05/23 15:54:20;;;;;;;0.80;0.60;;;21.10;99.90;;;;;;5069473;28;20439;-74
2023/05/23 15:56:47;;;;;;;0.88;0.88;;;20.60;99.90;;;;;;5075917;28;20994;-73
2023/05/23 15:59:14;;;;;;;0.68;0.68;;;20.10;99.90;;;;;;5050434;28;20592;-73
2023/05/23 16:01:41;;;;;;;3.45;0.93;;;19.80;99.90;;;;;;5071076;28;20503;-73
2023/05/23 16:04:11;;;;;;;0.73;0.73;;;19.60;99.90;;;;;;5069427;28;20457;-73
2023/05/23 16:06:38;;;;;;;0.80;0.80;;;19.60;99.90;;;;;;5063298;28;20427;-73
2023/05/23 16:09:05;;;;;;;3.85;0.88;;;19.40;99.90;;;;;;5065573;28;20433;-73
2023/05/23 16:11:31;;;;;;;0.63;0.60;;;19.30;99.90;;;;;;5055471;28;20438;-73
2023/05/23 16:13:58;;;;;;;1.30;0.77;;;19.30;99.90;;;;;;5075243;28;20438;-73
2023/05/23 16:16:25;;;;;;;0.82;0.82;;;19.50;99.90;;;;;;5076148;28;20462;-74
2023/05/23 16:18:52;;;;;;;1.13;0.38;;;19.50;99.90;;;;;;5077505;28;20440;-73
2023/05/23 16:21:19;;;;;;;1.70;1.17;;;19.50;99.90;;;;;;5069088;28;21070;-73
2023/05/23 16:23:52;;;;;;;1.10;1.10;;;19.40;99.90;;;;;;5068304;28;20429;-73
2023/05/23 16:26:19;;;;;;;0.75;0.73;;;19.30;99.90;;;;;;5080799;28;20425;-73
2023/05/23 16:28:46;;;;;;;2.20;0.80;;;19.00;99.90;;;;;;5081482;28;20430;-73
2023/05/23 16:31:14;;;;;;;3.07;1.07;;;19.00;99.90;;;;;;5074483;28;20423;-73
2023/05/23 16:33:42;;;;;;;0.70;0.70;;;19.00;99.90;;;;;;5072527;28;20440;-73
2023/05/23 16:36:08;;;;;;;0.90;0.90;;;18.70;99.90;;;;;;5073815;28;20472;-73
2023/05/23 16:38:35;;;;;;;0.55;0.55;;;18.60;99.90;;;;;;5064317;28;20810;-72
2023/05/23 16:41:02;;;;;;;0.60;0.60;;;18.50;99.90;;;;;;5079438;28;20521;-72
2023/05/23 16:43:32;;;;;;;1.60;0.55;;;18.40;99.90;;;;;;5072480;28;20969;-72
2023/05/23 16:45:59;;;;;;;0.90;0.90;;;18.30;99.90;;;;;;5076704;28;20481;-73
2023/05/23 16:48:28;;;;;;;0.50;0.50;;;18.30;99.90;;;;;;5079467;28;20886;-73
2023/05/23 16:50:56;;;;;;;0.63;0.63;;;18.20;99.90;;;;;;5064702;28;20514;-72
2023/05/23 16:53:22;;;;;;;0.55;0.55;;;18.10;99.90;;;;;;5085493;28;20483;-73
2023/05/23 16:55:49;;;;;;;0.47;0.47;;;18.10;99.90;;;;;;5047943;28;20433;-72
2023/05/23 16:58:16;;;;;;;0.63;0.63;;;17.90;99.90;;;;;;5079758;28;20431;-72
2023/05/23 17:00:47;;;;;;;0.40;0.40;;;17.70;99.90;;;;;;5081782;28;20466;-72
2023/05/23 17:03:14;;;;;;;0.80;0.60;;;17.60;99.90;;;;;;5079096;28;20798;-72
2023/05/23 17:05:41;;;;;;;0.40;0.40;;;17.30;99.90;;;;;;5069296;28;20485;-72
2023/05/23 17:08:08;;;;;;;1.10;0.93;;;17.20;99.90;;;;;;5072169;28;20442;-73
2023/05/23 17:10:35;;;;;;;0.90;0.90;;;17.00;99.90;;;;;;5071882;28;20426;-72
2023/05/23 17:13:02;;;;;;;0.35;0.35;;;16.90;99.90;;;;;;5082575;28;20426;-72
2023/05/23 17:15:30;;;;;;;0.70;0.70;;;16.80;99.90;;;;;;5086390;28;20435;-72
2023/05/23 17:17:59;;;;;;;1.10;0.90;;;16.80;99.90;;;;;;5077418;28;20775;-73
2023/05/23 17:20:26;;;;;;;1.20;1.10;;;16.70;99.90;;;;;;5084574;28;20455;-74
2023/05/23 17:22:55;;;;;;;0.70;0.70;;;16.70;99.90;;;;;;5073907;28;20432;-73
2023/05/23 17:25:22;;;;;;;0.40;0.40;;;16.80;99.90;;;;;;5081048;28;21166;-73
2023/05/23 17:27:49;;;;;;;0.57;0.57;;;16.80;99.90;;;;;;5083139;28;20434;-72
2023/05/23 17:30:19;;;;;;;0.80;0.45;;;16.80;99.90;;;;;;5040158;28;20529;-73
2023/05/23 17:32:46;;;;;;;1.10;0.60;;;16.80;99.90;;;;;;5042666;28;20435;-73
2023/05/23 17:35:13;;;;;;;0.40;0.40;;;16.70;99.90;;;;;;5069403;28;20435;-73
2023/05/23 17:37:42;;;;;;;0.47;0.47;;;16.60;99.90;;;;;;5067296;28;20467;-73
2023/05/23 17:40:12;;;;;;;1.30;0.80;;;16.50;99.90;;;;;;5070258;28;20431;-72
2023/05/23 17:42:39;;;;;;;2.50;1.00;;;16.50;99.90;;;;;;5057127;28;20439;-72
2023/05/23 17:45:08;;;;;;;4.15;1.45;;;16.50;99.90;;;;;;5050792;28;20429;-73
2023/05/23 17:47:35;;;;;;;0.43;0.43;;;16.50;99.90;;;;;;5053163;28;20439;-72
2023/05/23 17:50:03;;;;;;;1.10;0.80;;;16.50;99.90;;;;;;5070373;28;20497;-72
2023/05/23 17:52:30;;;;;;;2.75;0.60;;;16.50;99.90;;;;;;5049906;28;20431;-73
2023/05/23 17:54:56;;;;;;;0.57;0.57;;;16.40;99.90;;;;;;5049693;28;20443;-73
2023/05/23 17:57:23;;;;;;;1.58;0.85;;;16.50;99.90;;;;;;5069722;28;20474;-72
2023/05/23 17:59:50;;;;;;;0.80;0.80;;;16.50;99.90;;;;;;5069981;28;20793;-72
2023/05/23 18:02:17;;;;;;;1.42;1.00;;;16.50;99.90;;;;;;5050987;28;20470;-73
2023/05/23 18:04:44;;;;;;;1.25;0.88;;;16.50;99.90;;;;;;5049011;28;20475;-72
2023/05/23 18:07:11;;;;;;;0.82;0.82;;;16.50;99.90;;;;;;5048160;28;20432;-73
2023/05/23 18:09:38;;;;;;;0.57;0.57;;;16.50;99.90;;;;;;5056060;28;20512;-72
2023/05/23 18:12:05;;;;;;;0.60;0.60;;;16.60;99.90;;;;;;5053709;28;20429;-73
2023/05/23 18:14:32;;;;;;;0.67;0.67;;;16.50;99.90;;;;;;5079310;28;20887;-73
2023/05/23 18:17:01;;;;;;;0.70;0.70;;;16.40;99.90;;;;;;5050756;28;20535;-73
2023/05/23 18:19:32;;;;;;;0.77;0.77;;;16.30;99.90;;;;;;5067327;28;20487;-72
2023/05/23 18:22:02;;;;;;;0.65;0.65;;;16.10;99.90;;;;;;5067092;28;20431;-73
2023/05/23 18:24:29;;;;;;;0.30;0.30;;;15.90;99.90;;;;;;5075899;28;20442;-72
2023/05/23 18:26:59;;;;;;;0.68;0.68;;;15.60;99.90;;;;;;5064862;28;20484;-72
2023/05/23 18:29:29;;;;;;;0.30;0.30;;;15.40;99.90;;;;;;5075197;28;20454;-72
2023/05/23 18:31:56;;;;;;;0.65;0.65;;;15.20;99.90;;;;;;5060137;28;20434;-76
2023/05/23 18:34:23;;;;;;;1.02;0.73;;;15.10;99.90;;;;;;5060157;28;20525;-76
2023/05/23 18:36:52;;;;;;;0.47;0.47;;;14.90;99.90;;;;;;5065269;28;20521;-76
2023/05/23 18:39:22;;;;;;;1.10;1.05;;;14.80;99.90;;;;;;5043994;28;20485;-76
2023/05/23 18:41:49;;;;;;;2.10;0.75;;;14.70;99.90;;;;;;5062086;28;20429;-76
2023/05/23 18:44:17;;;;;;;1.07;1.07;;;14.60;99.90;;;;;;5071848;28;20598;-76
2023/05/23 18:46:46;;;;;;;0.70;0.70;;;14.50;99.90;;;;;;5062363;28;20414;-77
2023/05/23 18:49:14;;;;;;;0.80;0.80;;;14.40;99.90;;;;;;5069829;28;20459;-76
2023/05/23 18:51:46;;;;;;;0.60;0.60;;;14.40;99.90;;;;;;5055711;28;20464;-77
2023/05/23 18:54:13;;;;;;;0.90;0.90;;;14.30;99.90;;;;;;5056267;28;20513;-76
2023/05/23 18:56:39;;;;;;;1.10;1.10;;;14.20;99.90;;;;;;5069416;28;20937;-77
2023/05/23 18:59:14;;;;;;;1.43;0.70;;;14.10;99.90;;;;;;5055402;28;20927;-74
2023/05/23 19:01:44;;;;;;;1.00;0.60;;;14.10;99.90;;;;;;5076366;28;20433;-75
2023/05/23 19:04:11;;;;;;;0.50;0.50;;;14.00;99.90;;;;;;5075489;28;20435;-75
2023/05/23 19:06:38;;;;;;;0.70;0.70;;;13.90;99.90;;;;;;5077406;28;20422;-75
2023/05/23 19:09:08;;;;;;;0.63;0.63;;;13.80;99.90;;;;;;5074686;28;20740;-75
2023/05/23 19:11:38;;;;;;;0.90;0.90;;;13.80;99.90;;;;;;5065592;28;20437;-76
2023/05/23 19:14:05;;;;;;;0.53;0.53;;;13.70;99.90;;;;;;5062152;28;20440;-75
2023/05/23 19:16:34;;;;;;;0.33;0.33;;;13.60;99.90;;;;;;5076696;28;20863;-76
2023/05/23 19:19:04;;;;;;;0.50;0.50;;;13.60;99.90;;;;;;5080457;28;20875;-76
2023/05/23 19:21:35;;;;;;;0.50;0.50;;;13.60;99.90;;;;;;5071044;28;20440;-76
2023/05/23 19:24:06;;;;;;;0.90;0.90;;;13.50;99.90;;;;;;5062382;28;20464;-76
2023/05/23 19:26:33;;;;;;;0.80;0.70;;;13.40;99.90;;;;;;5058471;28;20923;-76
2023/05/23 19:29:00;;;;;;;0.63;0.60;;;13.30;99.90;;;;;;5083730;28;20779;-77
2023/05/23 19:31:27;;;;;;;0.80;0.80;;;13.20;99.90;;;;;;5040389;28;20433;-76
2023/05/23 19:33:54;;;;;;;1.40;0.80;;;13.00;99.90;;;;;;5058636;28;20938;-76
2023/05/23 19:36:21;;;;;;;5.90;0.80;;;12.80;99.90;;;;;;5074192;28;20789;-76
2023/05/23 19:38:47;;;;;;;0.52;0.52;;;12.70;99.90;;;;;;5076934;28;20457;-76
2023/05/23 19:41:17;;;;;;;0.70;0.70;;;12.60;99.90;;;;;;5064056;28;20460;-76
2023/05/23 19:43:46;;;;;;;3.00;0.60;;;12.70;99.90;;;;;;5048103;28;20442;-76
2023/05/23 19:46:14;;;;;;;5.25;0.73;;;12.80;99.90;;;;;;5074926;28;20466;-76
2023/05/23 19:48:41;;;;;;;0.52;0.52;;;12.80;99.90;;;;;;5065418;28;20431;-76
2023/05/23 19:51:08;;;;;;;1.17;1.17;;;12.90;99.90;;;;;;5071802;28;20443;-75
2023/05/23 19:53:37;;;;;;;2.13;0.90;;;12.70;99.90;;;;;;5074897;28;20463;-76
2023/05/23 19:56:05;;;;;;;6.13;0.73;;;12.60;99.90;;;;;;5061979;28;20519;-76
2023/05/23 19:58:34;;;;;;;0.60;0.60;;;12.50;99.90;;;;;;5065032;28;20466;-77
2023/05/23 20:01:01;;;;;;;0.93;0.93;;;12.40;99.90;;;;;;5068111;28;20464;-75
2023/05/23 20:03:28;;;;;;;0.52;0.52;;;12.20;99.90;;;;;;5067092;28;20490;-75
2023/05/23 20:05:55;;;;;;;0.60;0.50;;;12.10;99.90;;;;;;5067989;28;20441;-75
2023/05/23 20:08:22;;;;;;;1.50;0.77;;;12.10;99.90;;;;;;5065917;28;20437;-75
2023/05/23 20:10:49;;;;;;;3.33;0.95;;;12.00;99.90;;;;;;5074573;28;20422;-76
2023/05/23 20:13:16;;;;;;;1.50;1.10;;;11.90;1.00;;;;;;5056707;28;20469;-75
2023/05/23 20:15:46;;;;;;;2.40;1.08;;;11.70;1.00;;;;;;5045861;28;20487;-75
2023/05/23 20:18:13;;;;;;;0.90;0.90;;;11.60;1.00;;;;;;5075053;28;20433;-75
2023/05/23 20:20:43;;;;;;;0.80;0.80;;;11.50;1.00;;;;;;5063800;28;20455;-75
2023/05/23 20:23:09;;;;;;;0.77;0.77;;;11.30;97.70;;;;;;5073720;28;20431;-75
2023/05/23 20:25:40;;;;;;;2.35;1.27;;;11.20;99.90;;;;;;5086652;28;20468;-75
2023/05/23 20:28:07;;;;;;;1.30;0.70;;;11.00;99.90;;;;;;5078030;28;20425;-75
2023/05/23 20:30:34;;;;;;;1.70;0.70;;;10.90;1.00;;;;;;5043638;28;20426;-75
2023/05/23 20:33:01;;;;;;;0.68;0.65;;;10.90;93.40;;;;;;5087224;28;20430;-75
2023/05/23 20:35:28;;;;;;;0.70;0.70;;;10.80;99.90;;;;;;5069206;28;20435;-75
2023/05/23 20:37:55;;;;;;;0.63;0.63;;;10.80;1.00;;;;;;5042356;28;20433;-75
2023/05/23 20:40:26;;;;;;;0.52;0.52;;;10.80;6.70;;;;;;5045766;28;20453;-75
2023/05/23 20:42:53;;;;;;;1.60;0.97;;;10.80;99.90;;;;;;5070934;28;20473;-75
2023/05/23 20:45:20;;;;;;;0.75;0.70;;;10.70;99.90;;;;;;5065032;28;20865;-75
2023/05/23 20:47:47;;;;;;;0.97;0.97;;;10.70;99.90;;;;;;5037487;28;20421;-75
2023/05/23 20:50:17;;;;;;;0.75;0.75;;;10.60;1.00;;;;;;5062371;28;20454;-76
2023/05/23 20:52:44;;;;;;;0.88;0.88;;;10.60;1.00;;;;;;5053605;28;20428;-75
2023/05/23 20:55:12;;;;;;;1.23;0.63;;;10.60;1.00;;;;;;5069560;28;20948;-76